sensor_id;sensor_type;location;lat;lon;timestamp;pressure;altitude;pressure_sealevel;temperature;humidity
10115;BME280;5097;43.260;27.812;2022-11-12T00:00:56;101496.28;;;9.81;98.05
10115;BME280;5097;43.260;27.812;2022-11-12T00:03:59;101529.44;;;9.89;98.20
10115;BME280;5097;43.260;27.812;2022-11-12T00:07:01;101539.25;;;9.86;98.34
10115;BME280;5097;43.260;27.812;2022-11-12T00:10:05;101518.19;;;9.83;98.28
10115;BME280;5097;43.260;27.812;2022-11-12T00:13:09;101526.84;;;9.88;98.59
10115;BME280;5097;43.260;27.812;2022-11-12T00:16:11;101519.59;;;9.96;97.83
10115;BME280;5097;43.260;27.812;2022-11-12T00:19:13;101491.84;;;9.81;97.63
10115;BME280;5097;43.260;27.812;2022-11-12T00:22:16;101516.19;;;9.91;97.58
10115;BME280;5097;43.260;27.812;2022-11-12T00:25:19;101535.25;;;10.02;96.77
10115;BME280;5097;43.260;27.812;2022-11-12T00:28:23;101511.34;;;10.07;96.52
10115;BME280;5097;43.260;27.812;2022-11-12T00:31:25;101506.47;;;9.93;96.86
10115;BME280;5097;43.260;27.812;2022-11-12T00:34:28;101514.03;;;10.05;96.19
10115;BME280;5097;43.260;27.812;2022-11-12T00:37:31;101510.50;;;10.06;96.25
10115;BME280;5097;43.260;27.812;2022-11-12T00:40:33;101509.66;;;10.06;95.32
10115;BME280;5097;43.260;27.812;2022-11-12T00:43:37;101509.50;;;10.11;95.91
10115;BME280;5097;43.260;27.812;2022-11-12T00:46:40;101479.88;;;10.01;95.03
10115;BME280;5097;43.260;27.812;2022-11-12T00:49:42;101518.28;;;10.11;95.55
10115;BME280;5097;43.260;27.812;2022-11-12T00:52:45;101494.13;;;10.25;94.65
10115;BME280;5097;43.260;27.812;2022-11-12T00:55:47;101497.72;;;9.93;96.21
10115;BME280;5097;43.260;27.812;2022-11-12T00:58:51;101491.00;;;10.11;95.79
10115;BME280;5097;43.260;27.812;2022-11-12T01:01:53;101490.28;;;10.05;96.25
10115;BME280;5097;43.260;27.812;2022-11-12T01:04:55;101454.94;;;9.80;96.14
10115;BME280;5097;43.260;27.812;2022-11-12T01:07:58;101482.97;;;9.84;97.39
10115;BME280;5097;43.260;27.812;2022-11-12T01:11:05;101452.56;;;9.70;97.78
10115;BME280;5097;43.260;27.812;2022-11-12T01:14:09;101448.69;;;9.52;98.13
10115;BME280;5097;43.260;27.812;2022-11-12T01:17:12;101495.19;;;9.88;97.91
10115;BME280;5097;43.260;27.812;2022-11-12T01:20:15;101488.25;;;9.84;97.84
10115;BME280;5097;43.260;27.812;2022-11-12T01:23:17;101495.63;;;9.72;98.73
10115;BME280;5097;43.260;27.812;2022-11-12T01:26:21;101498.81;;;9.84;97.92
10115;BME280;5097;43.260;27.812;2022-11-12T01:29:25;101470.25;;;9.67;97.79
10115;BME280;5097;43.260;27.812;2022-11-12T01:32:27;101498.81;;;9.84;98.16
10115;BME280;5097;43.260;27.812;2022-11-12T01:35:30;101491.53;;;9.92;97.52
10115;BME280;5097;43.260;27.812;2022-11-12T01:38:33;101503.25;;;9.83;98.00
10115;BME280;5097;43.260;27.812;2022-11-12T01:41:37;101499.03;;;9.76;98.32
10115;BME280;5097;43.260;27.812;2022-11-12T01:44:43;101480.50;;;9.79;97.96
10115;BME280;5097;43.260;27.812;2022-11-12T01:47:48;101504.19;;;9.81;98.18
10115;BME280;5097;43.260;27.812;2022-11-12T01:50:52;101494.44;;;9.83;98.16
10115;BME280;5097;43.260;27.812;2022-11-12T01:53:56;101496.03;;;9.90;97.59
10115;BME280;5097;43.260;27.812;2022-11-12T01:57:00;101498.66;;;9.90;97.64
10115;BME280;5097;43.260;27.812;2022-11-12T02:00:07;101477.88;;;9.78;97.68
10115;BME280;5097;43.260;27.812;2022-11-12T02:03:14;101500.16;;;9.99;96.59
10115;BME280;5097;43.260;27.812;2022-11-12T02:06:17;101474.22;;;9.82;97.33
10115;BME280;5097;43.260;27.812;2022-11-12T02:09:20;101500.09;;;10.00;96.16
10115;BME280;5097;43.260;27.812;2022-11-12T02:12:23;101510.84;;;9.94;97.75
10115;BME280;5097;43.260;27.812;2022-11-12T02:16:04;101516.94;;;9.96;97.30
10115;BME280;5097;43.260;27.812;2022-11-12T02:19:10;101505.38;;;10.00;96.95
10115;BME280;5097;43.260;27.812;2022-11-12T02:22:14;101510.16;;;9.87;97.11
10115;BME280;5097;43.260;27.812;2022-11-12T02:25:19;101512.13;;;10.11;96.62
10115;BME280;5097;43.260;27.812;2022-11-12T02:28:22;101518.59;;;10.00;97.15
10115;BME280;5097;43.260;27.812;2022-11-12T02:31:25;101505.63;;;9.93;97.72
10115;BME280;5097;43.260;27.812;2022-11-12T02:34:27;101462.44;;;9.64;98.47
10115;BME280;5097;43.260;27.812;2022-11-12T02:37:31;101504.94;;;9.86;98.25
10115;BME280;5097;43.260;27.812;2022-11-12T02:40:34;101509.28;;;9.87;98.43
10115;BME280;5097;43.260;27.812;2022-11-12T02:43:36;101506.22;;;10.02;97.80
10115;BME280;5097;43.260;27.812;2022-11-12T02:46:38;101502.69;;;10.02;98.24
10115;BME280;5097;43.260;27.812;2022-11-12T02:49:40;101474.53;;;9.72;97.86
10115;BME280;5097;43.260;27.812;2022-11-12T02:52:45;101520.94;;;9.80;98.52
10115;BME280;5097;43.260;27.812;2022-11-12T02:55:48;101509.94;;;9.95;98.16
10115;BME280;5097;43.260;27.812;2022-11-12T02:58:50;101498.81;;;9.84;98.25
10115;BME280;5097;43.260;27.812;2022-11-12T03:01:53;101507.97;;;9.70;98.90
10115;BME280;5097;43.260;27.812;2022-11-12T03:04:55;101497.22;;;9.45;99.27
10115;BME280;5097;43.260;27.812;2022-11-12T03:08:01;101480.66;;;9.40;100.00
10115;BME280;5097;43.260;27.812;2022-11-12T03:11:09;101524.47;;;9.79;99.51
10115;BME280;5097;43.260;27.812;2022-11-12T03:14:12;101488.69;;;9.68;99.82
10115;BME280;5097;43.260;27.812;2022-11-12T03:17:14;101488.78;;;9.65;99.61
10115;BME280;5097;43.260;27.812;2022-11-12T03:20:17;101491.19;;;9.40;99.24
10115;BME280;5097;43.260;27.812;2022-11-12T03:23:21;101498.28;;;9.72;98.91
10115;BME280;5097;43.260;27.812;2022-11-12T03:26:24;101506.25;;;9.69;98.86
10115;BME280;5097;43.260;27.812;2022-11-12T03:29:33;101506.91;;;9.78;98.27
10115;BME280;5097;43.260;27.812;2022-11-12T03:32:35;101515.69;;;9.78;97.82
10115;BME280;5097;43.260;27.812;2022-11-12T03:35:37;101512.91;;;9.83;97.29
10115;BME280;5097;43.260;27.812;2022-11-12T03:38:41;101528.16;;;9.73;97.66
10115;BME280;5097;43.260;27.812;2022-11-12T03:41:43;101530.50;;;9.84;97.14
10115;BME280;5097;43.260;27.812;2022-11-12T03:44:45;101510.06;;;9.59;98.35
10115;BME280;5097;43.260;27.812;2022-11-12T03:47:49;101518.13;;;9.53;98.38
10115;BME280;5097;43.260;27.812;2022-11-12T03:50:52;101528.75;;;9.83;97.69
10115;BME280;5097;43.260;27.812;2022-11-12T03:53:59;101517.00;;;9.63;99.13
10115;BME280;5097;43.260;27.812;2022-11-12T03:57:01;101529.06;;;9.72;98.33
10115;BME280;5097;43.260;27.812;2022-11-12T04:00:05;101518.88;;;9.58;98.50
10115;BME280;5097;43.260;27.812;2022-11-12T04:03:08;101515.28;;;9.61;99.37
10115;BME280;5097;43.260;27.812;2022-11-12T04:06:10;101501.78;;;9.38;99.83
10115;BME280;5097;43.260;27.812;2022-11-12T04:09:31;101528.72;;;9.51;99.47
10115;BME280;5097;43.260;27.812;2022-11-12T04:12:34;101527.78;;;9.54;99.21
10115;BME280;5097;43.260;27.812;2022-11-12T04:15:55;101532.81;;;9.63;97.78
10115;BME280;5097;43.260;27.812;2022-11-12T04:19:15;101496.69;;;9.32;98.39
10115;BME280;5097;43.260;27.812;2022-11-12T04:22:35;101521.09;;;9.41;99.16
10115;BME280;5097;43.260;27.812;2022-11-12T04:25:39;101524.41;;;9.49;98.83
10115;BME280;5097;43.260;27.812;2022-11-12T04:29:14;101542.16;;;9.75;98.05
10115;BME280;5097;43.260;27.812;2022-11-12T04:32:38;101528.63;;;9.54;99.48
10115;BME280;5097;43.260;27.812;2022-11-12T04:35:41;101535.47;;;9.62;99.10
10115;BME280;5097;43.260;27.812;2022-11-12T04:38:43;101508.91;;;9.36;98.84
10115;BME280;5097;43.260;27.812;2022-11-12T04:41:47;101534.94;;;9.49;99.24
10115;BME280;5097;43.260;27.812;2022-11-12T04:45:07;101572.63;;;9.54;98.47
10115;BME280;5097;43.260;27.812;2022-11-12T04:48:10;101545.31;;;9.55;98.84
10115;BME280;5097;43.260;27.812;2022-11-12T04:51:13;101573.19;;;9.65;97.32
10115;BME280;5097;43.260;27.812;2022-11-12T04:54:29;101588.03;;;9.69;97.20
10115;BME280;5097;43.260;27.812;2022-11-12T04:57:33;101567.28;;;9.90;95.94
10115;BME280;5097;43.260;27.812;2022-11-12T05:00:35;101584.13;;;9.86;96.86
10115;BME280;5097;43.260;27.812;2022-11-12T05:03:38;101589.47;;;9.83;96.71
10115;BME280;5097;43.260;27.812;2022-11-12T05:06:40;101567.28;;;9.90;96.08
10115;BME280;5097;43.260;27.812;2022-11-12T05:09:55;101587.66;;;9.85;96.60
10115;BME280;5097;43.260;27.812;2022-11-12T05:12:58;101574.47;;;9.85;96.55
10115;BME280;5097;43.260;27.812;2022-11-12T05:16:00;101581.53;;;9.83;96.87
10115;BME280;5097;43.260;27.812;2022-11-12T05:19:03;101571.88;;;9.82;97.20
10115;BME280;5097;43.260;27.812;2022-11-12T05:22:05;101598.97;;;9.90;97.19
10115;BME280;5097;43.260;27.812;2022-11-12T05:25:21;101586.94;;;10.11;96.60
10115;BME280;5097;43.260;27.812;2022-11-12T05:28:25;101591.66;;;10.00;96.94
10115;BME280;5097;43.260;27.812;2022-11-12T05:31:28;101589.06;;;9.98;97.40
10115;BME280;5097;43.260;27.812;2022-11-12T05:34:30;101598.28;;;10.15;96.42
10115;BME280;5097;43.260;27.812;2022-11-12T05:37:32;101609.69;;;10.17;96.24
10115;BME280;5097;43.260;27.812;2022-11-12T05:40:34;101617.31;;;10.28;95.47
10115;BME280;5097;43.260;27.812;2022-11-12T05:43:38;101611.88;;;10.32;95.54
10115;BME280;5097;43.260;27.812;2022-11-12T05:46:41;101611.91;;;9.99;97.19
10115;BME280;5097;43.260;27.812;2022-11-12T05:49:43;101605.81;;;9.97;98.58
10115;BME280;5097;43.260;27.812;2022-11-12T05:52:45;101619.66;;;10.05;98.12
10115;BME280;5097;43.260;27.812;2022-11-12T05:55:48;101612.22;;;10.20;98.22
10115;BME280;5097;43.260;27.812;2022-11-12T05:58:51;101614.38;;;10.05;98.10
10115;BME280;5097;43.260;27.812;2022-11-12T06:01:54;101629.72;;;10.24;97.60
10115;BME280;5097;43.260;27.812;2022-11-12T06:04:56;101633.34;;;10.20;97.52
10115;BME280;5097;43.260;27.812;2022-11-12T06:07:59;101634.09;;;10.25;97.25
10115;BME280;5097;43.260;27.812;2022-11-12T06:11:01;101593.69;;;9.90;97.60
10115;BME280;5097;43.260;27.812;2022-11-12T06:14:05;101641.53;;;10.11;98.12
10115;BME280;5097;43.260;27.812;2022-11-12T06:17:08;101629.28;;;10.08;98.27
10115;BME280;5097;43.260;27.812;2022-11-12T06:20:11;101625.38;;;9.90;99.78
10115;BME280;5097;43.260;27.812;2022-11-12T06:23:13;101624.84;;;10.09;100.00
10115;BME280;5097;43.260;27.812;2022-11-12T06:26:16;101635.00;;;10.24;99.53
10115;BME280;5097;43.260;27.812;2022-11-12T06:29:20;101520.69;;;9.56;98.85
10115;BME280;5097;43.260;27.812;2022-11-12T06:32:22;101631.53;;;10.22;99.77
10115;BME280;5097;43.260;27.812;2022-11-12T06:35:25;101643.56;;;10.32;99.70
10115;BME280;5097;43.260;27.812;2022-11-12T06:38:28;101639.44;;;10.23;100.00
10115;BME280;5097;43.260;27.812;2022-11-12T06:41:31;101634.56;;;10.08;100.00
10115;BME280;5097;43.260;27.812;2022-11-12T06:44:34;101643.13;;;10.16;100.00
10115;BME280;5097;43.260;27.812;2022-11-12T06:47:37;101651.44;;;10.02;100.00
10115;BME280;5097;43.260;27.812;2022-11-12T06:50:39;101621.59;;;9.99;99.60
10115;BME280;5097;43.260;27.812;2022-11-12T06:53:41;101640.81;;;10.04;100.00
10115;BME280;5097;43.260;27.812;2022-11-12T06:56:44;101639.59;;;9.83;100.00
10115;BME280;5097;43.260;27.812;2022-11-12T06:59:48;101665.13;;;10.17;100.00
10115;BME280;5097;43.260;27.812;2022-11-12T07:02:51;101666.09;;;10.47;99.77
10115;BME280;5097;43.260;27.812;2022-11-12T07:05:53;101629.97;;;10.15;99.50
10115;BME280;5097;43.260;27.812;2022-11-12T07:08:56;101665.53;;;10.34;99.33
10115;BME280;5097;43.260;27.812;2022-11-12T07:11:58;101628.47;;;10.04;99.73
10115;BME280;5097;43.260;27.812;2022-11-12T07:15:02;101655.75;;;10.39;100.00
10115;BME280;5097;43.260;27.812;2022-11-12T07:18:05;101588.91;;;10.03;98.91
10115;BME280;5097;43.260;27.812;2022-11-12T07:21:10;101615.19;;;10.40;97.96
10115;BME280;5097;43.260;27.812;2022-11-12T07:24:12;101618.78;;;10.38;99.08
10115;BME280;5097;43.260;27.812;2022-11-12T07:27:15;101659.97;;;10.77;98.68
10115;BME280;5097;43.260;27.812;2022-11-12T07:30:18;101674.34;;;10.68;99.13
10115;BME280;5097;43.260;27.812;2022-11-12T07:33:21;101679.66;;;10.66;99.39
10115;BME280;5097;43.260;27.812;2022-11-12T07:36:23;101670.41;;;10.50;99.22
10115;BME280;5097;43.260;27.812;2022-11-12T07:39:25;101681.56;;;10.61;98.65
10115;BME280;5097;43.260;27.812;2022-11-12T07:42:27;101675.13;;;10.70;99.36
10115;BME280;5097;43.260;27.812;2022-11-12T07:45:31;101637.66;;;10.57;98.04
10115;BME280;5097;43.260;27.812;2022-11-12T07:48:34;101689.00;;;10.78;97.94
10115;BME280;5097;43.260;27.812;2022-11-12T07:51:36;101696.00;;;11.11;96.65
10115;BME280;5097;43.260;27.812;2022-11-12T07:54:38;101699.88;;;10.99;97.44
10115;BME280;5097;43.260;27.812;2022-11-12T07:57:40;101682.13;;;10.72;98.06
10115;BME280;5097;43.260;27.812;2022-11-12T08:00:44;101689.25;;;11.00;98.70
10115;BME280;5097;43.260;27.812;2022-11-12T08:03:46;101665.53;;;10.97;98.51
10115;BME280;5097;43.260;27.812;2022-11-12T08:06:49;101691.88;;;11.00;99.54
10115;BME280;5097;43.260;27.812;2022-11-12T08:09:51;101606.69;;;10.29;100.00
10115;BME280;5097;43.260;27.812;2022-11-12T08:12:55;101692.94;;;10.95;99.36
10115;BME280;5097;43.260;27.812;2022-11-12T08:15:59;101687.22;;;10.79;100.00
10115;BME280;5097;43.260;27.812;2022-11-12T08:19:01;101676.56;;;10.82;100.00
10115;BME280;5097;43.260;27.812;2022-11-12T08:22:03;101664.25;;;10.81;99.85
10115;BME280;5097;43.260;27.812;2022-11-12T08:25:07;101626.69;;;10.39;100.00
10115;BME280;5097;43.260;27.812;2022-11-12T08:28:09;101708.66;;;10.99;100.00
10115;BME280;5097;43.260;27.812;2022-11-12T08:31:14;101713.03;;;11.00;99.74
10115;BME280;5097;43.260;27.812;2022-11-12T08:34:17;101714.72;;;11.03;100.00
10115;BME280;5097;43.260;27.812;2022-11-12T08:37:22;101707.44;;;11.11;98.68
10115;BME280;5097;43.260;27.812;2022-11-12T08:40:25;101670.50;;;11.08;98.30
10115;BME280;5097;43.260;27.812;2022-11-12T08:43:28;101718.09;;;11.08;99.35
10115;BME280;5097;43.260;27.812;2022-11-12T08:46:32;101686.59;;;11.00;98.53
10115;BME280;5097;43.260;27.812;2022-11-12T08:49:34;101713.22;;;11.24;97.68
10115;BME280;5097;43.260;27.812;2022-11-12T08:52:37;101681.66;;;11.18;97.61
10115;BME280;5097;43.260;27.812;2022-11-12T08:55:39;101708.72;;;11.56;96.29
10115;BME280;5097;43.260;27.812;2022-11-12T08:58:41;101687.53;;;11.28;96.16
10115;BME280;5097;43.260;27.812;2022-11-12T09:01:45;101723.91;;;11.78;95.20
10115;BME280;5097;43.260;27.812;2022-11-12T09:04:48;101678.28;;;11.69;95.30
10115;BME280;5097;43.260;27.812;2022-11-12T09:07:56;101700.41;;;11.95;94.70
10115;BME280;5097;43.260;27.812;2022-11-12T09:10:58;101692.44;;;11.68;94.24
10115;BME280;5097;43.260;27.812;2022-11-12T09:14:01;101699.16;;;12.05;94.33
10115;BME280;5097;43.260;27.812;2022-11-12T09:17:05;101697.81;;;12.19;92.47
10115;BME280;5097;43.260;27.812;2022-11-12T09:20:08;101670.00;;;12.05;93.88
10115;BME280;5097;43.260;27.812;2022-11-12T09:23:12;101684.75;;;12.39;93.11
10115;BME280;5097;43.260;27.812;2022-11-12T09:26:15;101657.59;;;12.33;92.28
10115;BME280;5097;43.260;27.812;2022-11-12T09:29:17;101692.28;;;12.76;92.72
10115;BME280;5097;43.260;27.812;2022-11-12T09:32:21;101650.69;;;12.29;91.77
10115;BME280;5097;43.260;27.812;2022-11-12T09:35:23;101647.28;;;12.72;91.06
10115;BME280;5097;43.260;27.812;2022-11-12T09:38:26;101695.00;;;13.20;88.63
10115;BME280;5097;43.260;27.812;2022-11-12T09:41:32;101676.53;;;13.40;88.65
10115;BME280;5097;43.260;27.812;2022-11-12T09:44:36;101639.66;;;13.11;88.11
10115;BME280;5097;43.260;27.812;2022-11-12T09:47:45;101680.41;;;13.54;87.42
10115;BME280;5097;43.260;27.812;2022-11-12T09:50:54;101621.00;;;13.12;86.83
10115;BME280;5097;43.260;27.812;2022-11-12T09:54:03;101691.38;;;13.89;86.77
10115;BME280;5097;43.260;27.812;2022-11-12T09:57:09;101655.00;;;13.24;87.09
10115;BME280;5097;43.260;27.812;2022-11-12T10:00:15;101654.13;;;13.48;85.46
10115;BME280;5097;43.260;27.812;2022-11-12T10:03:28;101654.63;;;13.57;84.49
10115;BME280;5097;43.260;27.812;2022-11-12T10:06:37;101660.91;;;13.55;83.83
10115;BME280;5097;43.260;27.812;2022-11-12T10:09:52;101696.19;;;14.22;83.39
10115;BME280;5097;43.260;27.812;2022-11-12T10:13:09;101674.38;;;14.34;82.12
10115;BME280;5097;43.260;27.812;2022-11-12T10:16:24;101672.13;;;13.84;84.36
10115;BME280;5097;43.260;27.812;2022-11-12T10:19:53;101667.41;;;13.90;83.84
10115;BME280;5097;43.260;27.812;2022-11-12T10:23:06;101689.66;;;14.08;83.91
10115;BME280;5097;43.260;27.812;2022-11-12T10:26:13;101715.03;;;13.95;83.44
10115;BME280;5097;43.260;27.812;2022-11-12T10:29:27;101687.78;;;13.69;81.84
10115;BME280;5097;43.260;27.812;2022-11-12T10:32:36;101713.94;;;14.21;83.25
10115;BME280;5097;43.260;27.812;2022-11-12T10:35:40;101669.75;;;14.19;82.11
10115;BME280;5097;43.260;27.812;2022-11-12T10:38:42;101682.75;;;13.62;84.32
10115;BME280;5097;43.260;27.812;2022-11-12T10:42:00;101682.84;;;13.81;83.35
10115;BME280;5097;43.260;27.812;2022-11-12T10:45:18;101724.88;;;13.93;83.28
10115;BME280;5097;43.260;27.812;2022-11-12T10:48:23;101713.06;;;14.41;82.73
10115;BME280;5097;43.260;27.812;2022-11-12T10:51:32;101681.03;;;14.24;81.64
10115;BME280;5097;43.260;27.812;2022-11-12T10:54:36;101716.41;;;14.86;80.59
10115;BME280;5097;43.260;27.812;2022-11-12T10:57:39;101720.91;;;14.45;80.44
10115;BME280;5097;43.260;27.812;2022-11-12T11:00:55;101716.72;;;14.39;80.47
10115;BME280;5097;43.260;27.812;2022-11-12T11:03:58;101677.72;;;14.19;80.31
10115;BME280;5097;43.260;27.812;2022-11-12T11:07:04;101710.13;;;14.48;79.52
10115;BME280;5097;43.260;27.812;2022-11-12T11:10:22;101677.66;;;14.00;80.90
10115;BME280;5097;43.260;27.812;2022-11-12T11:13:26;101669.34;;;14.07;80.83
10115;BME280;5097;43.260;27.812;2022-11-12T11:16:28;101691.56;;;13.84;81.29
10115;BME280;5097;43.260;27.812;2022-11-12T11:19:35;101707.09;;;14.36;81.20
10115;BME280;5097;43.260;27.812;2022-11-12T11:22:41;101669.66;;;14.41;80.67
10115;BME280;5097;43.260;27.812;2022-11-12T11:25:49;101702.06;;;14.49;80.07
10115;BME280;5097;43.260;27.812;2022-11-12T11:28:58;101711.47;;;14.17;80.18
10115;BME280;5097;43.260;27.812;2022-11-12T11:32:13;101703.88;;;13.87;82.16
10115;BME280;5097;43.260;27.812;2022-11-12T11:35:24;101685.03;;;14.14;81.34
10115;BME280;5097;43.260;27.812;2022-11-12T11:38:37;101718.16;;;14.05;81.01
10115;BME280;5097;43.260;27.812;2022-11-12T11:41:53;101675.16;;;13.74;81.91
10115;BME280;5097;43.260;27.812;2022-11-12T11:45:14;101679.00;;;13.67;82.09
10115;BME280;5097;43.260;27.812;2022-11-12T11:48:29;101591.66;;;13.17;82.92
10115;BME280;5097;43.260;27.812;2022-11-12T11:51:45;101712.97;;;14.02;81.92
10115;BME280;5097;43.260;27.812;2022-11-12T11:55:04;101712.06;;;14.23;80.50
10115;BME280;5097;43.260;27.812;2022-11-12T11:58:28;101695.22;;;13.82;81.88
10115;BME280;5097;43.260;27.812;2022-11-12T12:01:49;101696.78;;;13.65;83.24
10115;BME280;5097;43.260;27.812;2022-11-12T12:05:01;101703.69;;;13.69;83.19
10115;BME280;5097;43.260;27.812;2022-11-12T12:08:11;101706.16;;;14.17;81.36
10115;BME280;5097;43.260;27.812;2022-11-12T12:11:21;101709.34;;;13.82;81.90
10115;BME280;5097;43.260;27.812;2022-11-12T12:14:37;101713.28;;;13.73;83.34
10115;BME280;5097;43.260;27.812;2022-11-12T12:17:48;101721.09;;;13.77;82.02
10115;BME280;5097;43.260;27.812;2022-11-12T12:20:57;101720.28;;;13.97;82.39
10115;BME280;5097;43.260;27.812;2022-11-12T12:24:09;101707.34;;;13.67;82.70
10115;BME280;5097;43.260;27.812;2022-11-12T12:27:17;101728.69;;;13.41;82.76
10115;BME280;5097;43.260;27.812;2022-11-12T12:30:22;101730.50;;;13.63;83.08
10115;BME280;5097;43.260;27.812;2022-11-12T12:33:29;101691.50;;;13.19;84.03
10115;BME280;5097;43.260;27.812;2022-11-12T12:36:36;101725.06;;;13.20;85.02
10115;BME280;5097;43.260;27.812;2022-11-12T12:39:45;101717.34;;;12.90;86.36
10115;BME280;5097;43.260;27.812;2022-11-12T12:42:55;101728.75;;;13.16;85.22
10115;BME280;5097;43.260;27.812;2022-11-12T12:46:01;101730.97;;;13.05;85.41
10115;BME280;5097;43.260;27.812;2022-11-12T12:49:06;101552.81;;;12.00;85.05
10115;BME280;5097;43.260;27.812;2022-11-12T12:52:12;101708.16;;;13.23;85.21
10115;BME280;5097;43.260;27.812;2022-11-12T12:55:37;101745.56;;;13.17;85.08
10115;BME280;5097;43.260;27.812;2022-11-12T12:58:43;101736.91;;;13.12;85.72
10115;BME280;5097;43.260;27.812;2022-11-12T13:01:54;101738.53;;;13.16;85.40
10115;BME280;5097;43.260;27.812;2022-11-12T13:04:57;101741.06;;;13.43;84.76
10115;BME280;5097;43.260;27.812;2022-11-12T13:08:02;101742.91;;;12.93;85.94
10115;BME280;5097;43.260;27.812;2022-11-12T13:11:08;101722.06;;;13.06;86.04
10115;BME280;5097;43.260;27.812;2022-11-12T13:17:53;101744.63;;;12.94;86.09
10115;BME280;5097;43.260;27.812;2022-11-12T13:21:09;101744.63;;;13.18;85.91
10115;BME280;5097;43.260;27.812;2022-11-12T13:24:15;101740.25;;;13.17;85.73
10115;BME280;5097;43.260;27.812;2022-11-12T13:28:08;101746.22;;;13.22;85.09
10115;BME280;5097;43.260;27.812;2022-11-12T13:31:25;101719.81;;;13.43;83.58
10115;BME280;5097;43.260;27.812;2022-11-12T13:34:32;101742.59;;;13.24;84.80
10115;BME280;5097;43.260;27.812;2022-11-12T13:37:41;101719.03;;;12.93;85.41
10115;BME280;5097;43.260;27.812;2022-11-12T13:40:45;101702.75;;;13.02;84.95
10115;BME280;5097;43.260;27.812;2022-11-12T13:43:50;101734.53;;;13.04;86.05
10115;BME280;5097;43.260;27.812;2022-11-12T13:46:53;101723.84;;;13.29;84.88
10115;BME280;5097;43.260;27.812;2022-11-12T13:49:59;101738.22;;;13.00;86.24
10115;BME280;5097;43.260;27.812;2022-11-12T13:53:06;101736.38;;;13.02;86.45
10115;BME280;5097;43.260;27.812;2022-11-12T13:56:09;101745.31;;;12.99;86.57
10115;BME280;5097;43.260;27.812;2022-11-12T13:59:13;101721.25;;;12.56;87.33
10115;BME280;5097;43.260;27.812;2022-11-12T14:02:20;101734.25;;;12.88;87.67
10115;BME280;5097;43.260;27.812;2022-11-12T14:05:26;101741.84;;;12.97;86.52
10115;BME280;5097;43.260;27.812;2022-11-12T14:08:50;101729.16;;;12.82;87.12
10115;BME280;5097;43.260;27.812;2022-11-12T14:12:10;101682.94;;;12.89;85.83
10115;BME280;5097;43.260;27.812;2022-11-12T14:15:24;101721.00;;;13.12;85.53
10115;BME280;5097;43.260;27.812;2022-11-12T14:18:37;101732.44;;;13.12;85.34
10115;BME280;5097;43.260;27.812;2022-11-12T14:21:57;101709.69;;;13.06;85.73
10115;BME280;5097;43.260;27.812;2022-11-12T14:25:00;101723.44;;;12.93;85.82
10115;BME280;5097;43.260;27.812;2022-11-12T14:28:03;101718.78;;;12.76;87.84
10115;BME280;5097;43.260;27.812;2022-11-12T14:31:11;101705.03;;;12.64;87.91
10115;BME280;5097;43.260;27.812;2022-11-12T14:34:21;101707.47;;;12.70;87.60
10115;BME280;5097;43.260;27.812;2022-11-12T14:37:34;101694.75;;;12.56;88.31
10115;BME280;5097;43.260;27.812;2022-11-12T14:40:46;101715.78;;;12.61;87.98
10115;BME280;5097;43.260;27.812;2022-11-12T14:43:51;101713.72;;;12.44;89.07
10115;BME280;5097;43.260;27.812;2022-11-12T14:47:16;101733.94;;;12.47;89.58
10115;BME280;5097;43.260;27.812;2022-11-12T14:50:21;101732.63;;;12.84;88.11
10115;BME280;5097;43.260;27.812;2022-11-12T14:53:30;101734.63;;;12.77;87.79
10115;BME280;5097;43.260;27.812;2022-11-12T14:56:37;101735.69;;;12.73;88.82
10115;BME280;5097;43.260;27.812;2022-11-12T14:59:41;101736.00;;;12.64;88.81
10115;BME280;5097;43.260;27.812;2022-11-12T15:02:45;101697.03;;;12.42;89.00
10115;BME280;5097;43.260;27.812;2022-11-12T15:06:09;101735.03;;;12.66;88.96
10115;BME280;5097;43.260;27.812;2022-11-12T15:09:16;101698.56;;;12.48;88.69
10115;BME280;5097;43.260;27.812;2022-11-12T15:12:23;101738.06;;;12.81;88.44
10115;BME280;5097;43.260;27.812;2022-11-12T15:15:26;101748.66;;;13.04;87.80
10115;BME280;5097;43.260;27.812;2022-11-12T15:18:29;101745.94;;;13.06;87.13
10115;BME280;5097;43.260;27.812;2022-11-12T15:21:32;101713.94;;;12.63;88.05
10115;BME280;5097;43.260;27.812;2022-11-12T15:24:36;101727.25;;;12.36;89.44
10115;BME280;5097;43.260;27.812;2022-11-12T15:27:41;101744.34;;;12.53;89.75
10115;BME280;5097;43.260;27.812;2022-11-12T15:30:58;101702.19;;;12.20;90.55
10115;BME280;5097;43.260;27.812;2022-11-12T15:34:23;101736.59;;;12.47;89.66
10115;BME280;5097;43.260;27.812;2022-11-12T15:37:27;101720.00;;;12.16;90.58
10115;BME280;5097;43.260;27.812;2022-11-12T15:40:39;101720.19;;;12.10;90.79
10115;BME280;5097;43.260;27.812;2022-11-12T15:43:44;101742.94;;;12.43;90.14
10115;BME280;5097;43.260;27.812;2022-11-12T15:46:46;101749.91;;;12.45;90.27
10115;BME280;5097;43.260;27.812;2022-11-12T15:49:50;101699.97;;;12.07;90.71
10115;BME280;5097;43.260;27.812;2022-11-12T15:52:53;101714.78;;;12.13;90.20
10115;BME280;5097;43.260;27.812;2022-11-12T15:55:56;101706.84;;;12.13;90.83
10115;BME280;5097;43.260;27.812;2022-11-12T15:58:59;101733.94;;;12.21;91.47
10115;BME280;5097;43.260;27.812;2022-11-12T16:02:02;101745.88;;;12.08;92.18
10115;BME280;5097;43.260;27.812;2022-11-12T16:05:07;101742.41;;;12.06;92.49
10115;BME280;5097;43.260;27.812;2022-11-12T16:08:13;101761.50;;;12.16;92.35
10115;BME280;5097;43.260;27.812;2022-11-12T16:11:17;101722.06;;;11.80;92.89
10115;BME280;5097;43.260;27.812;2022-11-12T16:14:37;101763.72;;;12.03;92.48
10115;BME280;5097;43.260;27.812;2022-11-12T16:17:40;101738.53;;;11.89;93.27
10115;BME280;5097;43.260;27.812;2022-11-12T16:20:43;101727.69;;;11.69;93.29